Liberty of The Seas — C6VQ8 — position and weather

sailwx.info

Track history (hours):
 
Tides and Currents Weather Stations Pressure Air Temp Water Temp Dewpoint Dewpoint Depression Visibility Wind Speed Wind Dir Waves Ship Positions

Liberty of The Seas

Last reported at 2017-Nov-18 11:00 UTC. Time now 2017-Nov-19 03:11 UTC.
Position N 24°42' W 088°30'.

Type: Passenger vessel. MMSI: 309436000.

Wind from 090 at 12 knots

Barometer 1014.0 mb
Air temperature 24.3 ° C
Visibility: greater than 10.8 NM
Dewpoint 17.5 ° C

Date/timePositionNaut miles runAvg speedWind from/ knotsBaromVisibWave heightAir tempDewpointWater temp
2017-Nov-18 11:00N 24°42' W 088°30'   090 / 121014.010.8 24.317.5
2017-Nov-15 11:00N 19°42' W 082°54'8120.3 040 / 281009.010.8 26.423.7
2017-Nov-15 07:00N 20°00' W 084°18'15118.5 050 / 311011.0 5.4 26.024.627.0
2017-Nov-14 22:50N 20°37' W 086°54'720.4
2017-Nov-14 22:30N 20°32' W 086°58'3 5.5
2017-Nov-14 21:56N 20°29' W 086°59'0 0.0
2017-Nov-14 21:29N 20°29' W 086°59'0 0.0
2017-Nov-14 20:59N 20°29' W 086°59'0 0.0
2017-Nov-14 20:29N 20°29' W 086°59'0 0.0
2017-Nov-14 19:59N 20°29' W 086°59'0 0.0
2017-Nov-14 19:29N 20°29' W 086°59'0 0.0
2017-Nov-14 18:59N 20°29' W 086°59'0 0.0
2017-Nov-14 18:29N 20°29' W 086°59'0 0.0
2017-Nov-14 17:56N 20°29' W 086°59'0 0.0
2017-Nov-14 17:29N 20°29' W 086°59'0 0.0
2017-Nov-14 16:59N 20°29' W 086°59'0 0.0
2017-Nov-14 16:29N 20°29' W 086°59'0 0.0
2017-Nov-14 15:59N 20°29' W 086°59'0 0.0
2017-Nov-14 15:29N 20°29' W 086°59'0 0.0
2017-Nov-14 14:59N 20°29' W 086°59'0 0.0
2017-Nov-14 14:29N 20°29' W 086°59'0 0.0
2017-Nov-14 13:59N 20°29' W 086°59'0 0.0
2017-Nov-14 13:29N 20°29' W 086°59'0 0.0
2017-Nov-14 13:00N 20°29' W 086°59'1 1.9
2017-Nov-14 12:30N 20°30' W 086°59'612.5
2017-Nov-14 12:00N 20°36' W 086°56'67518.4
2017-Nov-12 23:19N 29°21' W 094°44'3 9.5
2017-Nov-12 23:00N 29°19' W 094°47'1 0.1
2017-Nov-12 11:23N 29°20' W 094°46'8816.3
2017-Nov-12 06:00N 28°30' W 093°24'39719.9 090 / 181019.0 22.020.527.0
2017-Nov-11 10:00N 23°48' W 088°12'20419.9 060 / 281015.010.8 25.521.8
2017-Nov-10 23:44N 20°38' W 086°54'521.0
2017-Nov-10 23:30N 20°34' W 086°57'5 9.5
2017-Nov-10 23:00N 20°29' W 086°58'0 0.3
2017-Nov-10 22:26N 20°29' W 086°59'0 0.0
2017-Nov-10 21:56N 20°29' W 086°59'0 0.0
2017-Nov-10 21:29N 20°29' W 086°59'0 0.0
2017-Nov-10 20:56N 20°29' W 086°59'0 0.0
2017-Nov-10 20:26N 20°29' W 086°59'0 0.0
2017-Nov-10 19:59N 20°29' W 086°59'0 0.0
2017-Nov-10 19:29N 20°29' W 086°59'0 0.0
2017-Nov-10 18:59N 20°29' W 086°59'0 0.0
2017-Nov-10 18:29N 20°29' W 086°59'0 0.0
2017-Nov-10 17:56N 20°29' W 086°59'0 0.0
2017-Nov-10 17:29N 20°29' W 086°59'0 0.0
2017-Nov-10 16:59N 20°29' W 086°59'0 0.0
2017-Nov-10 16:26N 20°29' W 086°59'0 0.0
2017-Nov-10 15:56N 20°29' W 086°59'0 0.0
2017-Nov-10 15:23N 20°29' W 086°59'0 0.0
2017-Nov-10 14:56N 20°29' W 086°59'0 0.0
2017-Nov-10 14:29N 20°29' W 086°59'0 0.0
2017-Nov-10 13:59N 20°29' W 086°59'0 0.0
2017-Nov-10 13:20N 20°29' W 086°59'0 0.0
2017-Nov-10 12:59N 20°29' W 086°59'1 1.3
2017-Nov-10 12:30N 20°29' W 086°59'3 6.6
2017-Nov-10 12:01N 20°27' W 087°01'4 7.6
2017-Nov-10 11:30N 20°24' W 087°04'4 7.3
2017-Nov-10 11:00N 20°21' W 087°05'130 5.2
2017-Nov-09 10:00N 18°12' W 087°24'101 4.4 050 / 151012.010.8 26.522.9
2017-Nov-08 11:00N 16°42' W 086°36'   050 / 161012.010.8 26.522.9
Track history (hours):
 
Tides and Currents Weather Stations Pressure Air Temp Water Temp Dewpoint Dewpoint Depression Visibility Wind Speed Wind Dir Waves Ship Positions

Liberty of The Seas

Last reported at 2017-Nov-18 11:00 UTC. Time now 2017-Nov-19 03:11 UTC.
Position N 24°42' W 088°30'.

Type: Passenger vessel. MMSI: 309436000.

Wind from 090 at 12 knots

Barometer 1014.0 mb
Air temperature 24.3 ° C
Visibility: greater than 10.8 NM
Dewpoint 17.5 ° C

Date/timePositionNaut miles runAvg speedWind from/ knotsBaromVisibWave heightAir tempDewpointWater temp
2017-Nov-18 11:00N 24°42' W 088°30'   090 / 121014.010.8 24.317.5
2017-Nov-15 11:00N 19°42' W 082°54'8120.3 040 / 281009.010.8 26.423.7
2017-Nov-15 07:00N 20°00' W 084°18'15118.5 050 / 311011.0 5.4 26.024.627.0
2017-Nov-14 22:50N 20°37' W 086°54'720.4
2017-Nov-14 22:30N 20°32' W 086°58'3 5.5
2017-Nov-14 21:56N 20°29' W 086°59'0 0.0
2017-Nov-14 21:29N 20°29' W 086°59'0 0.0
2017-Nov-14 20:59N 20°29' W 086°59'0 0.0
2017-Nov-14 20:29N 20°29' W 086°59'0 0.0
2017-Nov-14 19:59N 20°29' W 086°59'0 0.0
2017-Nov-14 19:29N 20°29' W 086°59'0 0.0
2017-Nov-14 18:59N 20°29' W 086°59'0 0.0
2017-Nov-14 18:29N 20°29' W 086°59'0 0.0
2017-Nov-14 17:56N 20°29' W 086°59'0 0.0
2017-Nov-14 17:29N 20°29' W 086°59'0 0.0
2017-Nov-14 16:59N 20°29' W 086°59'0 0.0
2017-Nov-14 16:29N 20°29' W 086°59'0 0.0
2017-Nov-14 15:59N 20°29' W 086°59'0 0.0
2017-Nov-14 15:29N 20°29' W 086°59'0 0.0
2017-Nov-14 14:59N 20°29' W 086°59'0 0.0
2017-Nov-14 14:29N 20°29' W 086°59'0 0.0
2017-Nov-14 13:59N 20°29' W 086°59'0 0.0
2017-Nov-14 13:29N 20°29' W 086°59'0 0.0
2017-Nov-14 13:00N 20°29' W 086°59'1 1.9
2017-Nov-14 12:30N 20°30' W 086°59'612.5
2017-Nov-14 12:00N 20°36' W 086°56'67518.4
2017-Nov-12 23:19N 29°21' W 094°44'3 9.5
2017-Nov-12 23:00N 29°19' W 094°47'1 0.1
2017-Nov-12 11:23N 29°20' W 094°46'8816.3
2017-Nov-12 06:00N 28°30' W 093°24'39719.9 090 / 181019.0 22.020.527.0
2017-Nov-11 10:00N 23°48' W 088°12'20419.9 060 / 281015.010.8 25.521.8
2017-Nov-10 23:44N 20°38' W 086°54'521.0
2017-Nov-10 23:30N 20°34' W 086°57'5 9.5
2017-Nov-10 23:00N 20°29' W 086°58'0 0.3
2017-Nov-10 22:26N 20°29' W 086°59'0 0.0
2017-Nov-10 21:56N 20°29' W 086°59'0 0.0
2017-Nov-10 21:29N 20°29' W 086°59'0 0.0
2017-Nov-10 20:56N 20°29' W 086°59'0 0.0
2017-Nov-10 20:26N 20°29' W 086°59'0 0.0
2017-Nov-10 19:59N 20°29' W 086°59'0 0.0
2017-Nov-10 19:29N 20°29' W 086°59'0 0.0
2017-Nov-10 18:59N 20°29' W 086°59'0 0.0
2017-Nov-10 18:29N 20°29' W 086°59'0 0.0
2017-Nov-10 17:56N 20°29' W 086°59'0 0.0
2017-Nov-10 17:29N 20°29' W 086°59'0 0.0
2017-Nov-10 16:59N 20°29' W 086°59'0 0.0
2017-Nov-10 16:26N 20°29' W 086°59'0 0.0
2017-Nov-10 15:56N 20°29' W 086°59'0 0.0
2017-Nov-10 15:23N 20°29' W 086°59'0 0.0
2017-Nov-10 14:56N 20°29' W 086°59'0 0.0
2017-Nov-10 14:29N 20°29' W 086°59'0 0.0
2017-Nov-10 13:59N 20°29' W 086°59'0 0.0
2017-Nov-10 13:20N 20°29' W 086°59'0 0.0
2017-Nov-10 12:59N 20°29' W 086°59'1 1.3
2017-Nov-10 12:30N 20°29' W 086°59'3 6.6
2017-Nov-10 12:01N 20°27' W 087°01'4 7.6
2017-Nov-10 11:30N 20°24' W 087°04'4 7.3
2017-Nov-10 11:00N 20°21' W 087°05'130 5.2
2017-Nov-09 10:00N 18°12' W 087°24'101 4.4 050 / 151012.010.8 26.522.9
2017-Nov-08 11:00N 16°42' W 086°36'   050 / 161012.010.8 26.522.9

Dump ship's entire track history